Time;durP1;ratioP1;P1;durP2;ratioP2;P2;SDS_P1;SDS_P2;PMS_P1;PMS_P2;Temp;Humidity;BMP_temperature;BMP_pressure;BME280_temperature;BME280_humidity;BME280_pressure;Samples;Min_cycle;Max_cycle;Signal;HPM_P1;HPM_P2
2023/06/18 00:01:59;;;;;;;17.70;9.70;;;;;;;17.19;100.00;100220.64;106106;1255;63812;-84
2023/06/18 00:04:25;;;;;;;14.20;9.00;;;;;;;17.19;100.00;100214.51;107359;1251;71438;-84
2023/06/18 00:06:55;;;;;;;11.50;8.50;;;;;;;17.19;100.00;100215.92;108912;1251;59492;-84
2023/06/18 00:09:22;;;;;;;10.10;9.10;;;;;;;17.18;100.00;100216.51;106069;1257;59726;-87
2023/06/18 00:11:49;;;;;;;11.70;9.70;;;;;;;17.17;100.00;100217.14;106110;1251;72907;-85
2023/06/18 00:14:17;;;;;;;12.70;10.60;;;;;;;17.15;100.00;100220.46;106093;1257;63831;-86
2023/06/18 00:16:44;;;;;;;11.30;9.70;;;;;;;17.13;100.00;100217.51;106122;1254;72516;-87
2023/06/18 00:19:11;;;;;;;11.10;9.50;;;;;;;17.11;100.00;100218.63;108185;1249;60914;-84
2023/06/18 00:21:38;;;;;;;14.70;9.20;;;;;;;17.08;100.00;100217.94;107535;1253;60161;-84
2023/06/18 00:24:05;;;;;;;16.20;9.50;;;;;;;17.06;100.00;100211.16;106175;1254;72095;-84
2023/06/18 00:26:32;;;;;;;10.10;9.10;;;;;;;17.04;100.00;100212.55;106099;1251;63703;-84
2023/06/18 00:29:01;;;;;;;10.80;9.70;;;;;;;17.02;100.00;100210.10;106135;1253;72457;-84
2023/06/18 00:31:32;;;;;;;12.40;8.70;;;;;;;16.99;100.00;100212.45;106073;1257;62079;-84
2023/06/18 00:34:05;;;;;;;14.50;10.50;;;;;;;16.97;100.00;100211.75;106099;1254;60311;-85
2023/06/18 00:36:38;;;;;;;12.40;9.70;;;;;;;16.94;100.00;100216.14;106186;1253;73899;-85
2023/06/18 00:39:06;;;;;;;10.80;9.30;;;;;;;16.90;100.00;100218.06;106155;1254;62707;-84
2023/06/18 00:41:33;;;;;;;14.10;10.00;;;;;;;16.86;100.00;100224.66;105990;1253;72658;-87
2023/06/18 00:44:00;;;;;;;11.30;9.30;;;;;;;16.83;100.00;100227.41;106069;1256;60684;-84
2023/06/18 00:46:27;;;;;;;11.00;9.10;;;;;;;16.79;100.00;100229.13;105950;1257;60422;-86
2023/06/18 00:48:54;;;;;;;10.50;9.40;;;;;;;16.76;100.00;100229.02;105968;1258;73793;-85
2023/06/18 00:51:22;;;;;;;11.90;9.80;;;;;;;16.74;100.00;100229.44;105931;1257;64001;-85
2023/06/18 00:53:49;;;;;;;10.10;8.90;;;;;;;16.72;100.00;100229.46;106104;1257;71609;-84
2023/06/18 00:56:15;;;;;;;11.60;9.30;;;;;;;16.70;100.00;100228.91;106032;1251;60494;-88
2023/06/18 00:58:47;;;;;;;10.40;9.30;;;;;;;16.68;100.00;100229.11;106081;1251;60568;-86
2023/06/18 01:01:14;;;;;;;11.60;9.10;;;;;;;16.65;100.00;100231.80;106026;1257;72649;-82
2023/06/18 01:03:41;;;;;;;10.30;9.20;;;;;;;16.63;100.00;100236.13;106172;1254;62809;-85
2023/06/18 01:06:09;;;;;;;13.20;9.50;;;;;;;16.60;100.00;100232.33;106074;1254;72606;-85
2023/06/18 01:08:40;;;;;;;10.90;9.80;;;;;;;16.57;100.00;100230.61;106101;1254;62026;-84
2023/06/18 01:11:07;;;;;;;10.10;9.10;;;;;;;16.55;100.00;100232.42;106406;1251;60418;-83
2023/06/18 01:13:36;;;;;;;13.90;9.80;;;;;;;16.53;100.00;100232.77;106518;1251;73764;-83
2023/06/18 01:16:05;;;;;;;12.70;10.10;;;;;;;16.50;100.00;100231.27;106291;1257;64735;-84
2023/06/18 01:18:37;;;;;;;13.90;12.20;;;;;;;16.48;100.00;100233.20;106154;1254;72710;-86
2023/06/18 01:21:09;;;;;;;14.10;11.10;;;;;;;16.46;100.00;100234.78;106051;1257;61680;-87
2023/06/18 01:24:11;;;;;;;13.70;12.10;;;;;;;16.44;100.00;100232.14;106094;1254;60536;-87
2023/06/18 01:26:38;;;;;;;13.40;11.90;;;;;;;16.41;100.00;100231.05;105945;1257;72452;-83
2023/06/18 01:29:08;;;;;;;11.90;10.70;;;;;;;16.37;100.00;100233.81;108136;1259;62902;-81
2023/06/18 01:31:36;;;;;;;15.30;11.20;;;;;;;16.34;100.00;100234.48;105679;1262;72642;-84
2023/06/18 01:34:04;;;;;;;14.60;12.00;;;;;;;16.31;100.00;100239.80;105426;1264;60533;-86
2023/06/18 01:37:09;;;;;;;15.90;11.60;;;;;;;16.30;100.00;100237.45;105546;1260;60932;-86
2023/06/18 01:39:46;;;;;;;13.10;10.10;;;;;;;16.29;100.00;100237.10;105166;1268;74011;-85
2023/06/18 01:42:16;;;;;;;12.20;10.90;;;;;;;16.27;100.00;100241.65;105052;1268;63750;-86
2023/06/18 01:44:49;;;;;;;13.40;11.60;;;;;;;16.26;100.00;100244.39;105012;1266;72437;-85
2023/06/18 01:47:16;;;;;;;14.70;11.40;;;;;;;16.25;100.00;100245.02;105045;1276;61048;-85
2023/06/18 01:49:43;;;;;;;14.50;11.50;;;;;;;16.23;100.00;100245.54;105168;1263;60528;-84
2023/06/18 01:52:12;;;;;;;14.20;11.50;;;;;;;16.21;100.00;100247.81;104782;1271;74001;-83
2023/06/18 01:54:39;;;;;;;13.40;10.50;;;;;;;16.19;100.00;100252.09;104951;1270;63829;-82
2023/06/18 01:57:06;;;;;;;11.60;10.40;;;;;;;16.16;100.00;100254.61;105041;1265;71440;-83
2023/06/18 01:59:33;;;;;;;13.60;11.90;;;;;;;16.14;100.00;100251.64;105219;1263;61761;-86
2023/06/18 02:02:00;;;;;;;15.70;12.90;;;;;;;16.12;100.00;100258.17;105224;1268;60520;-86
2023/06/18 02:04:27;;;;;;;15.70;11.50;;;;;;;16.09;100.00;100258.41;105521;1263;73899;-84
2023/06/18 02:06:54;;;;;;;21.20;15.90;;;;;;;16.07;100.00;100260.14;105447;1262;64135;-84
2023/06/18 02:09:21;;;;;;;13.10;11.10;;;;;;;16.06;100.00;100259.57;105470;1262;72465;-84
2023/06/18 02:11:48;;;;;;;13.30;11.80;;;;;;;16.05;100.00;100260.56;105378;1262;61827;-87
2023/06/18 02:14:15;;;;;;;12.30;11.00;;;;;;;16.04;100.00;100262.21;105419;1258;60621;-85
2023/06/18 02:16:42;;;;;;;13.00;11.70;;;;;;;16.03;100.00;100261.98;105807;1257;73776;-85
2023/06/18 02:19:10;;;;;;;13.00;11.80;;;;;;;16.01;100.00;100261.23;106866;1256;63643;-83
2023/06/18 02:21:37;;;;;;;12.10;10.00;;;;;;;16.00;100.00;100264.81;107288;1254;71163;-83
2023/06/18 02:24:04;;;;;;;11.60;10.40;;;;;;;16.01;100.00;100267.26;106379;1251;60545;-83
2023/06/18 02:26:30;;;;;;;15.00;11.10;;;;;;;16.01;100.00;100267.94;106039;1256;60341;-83
2023/06/18 02:28:57;;;;;;;11.10;10.00;;;;;;;16.02;100.00;100269.58;106150;1263;73801;-83
2023/06/18 02:31:24;;;;;;;12.10;10.80;;;;;;;16.03;100.00;100272.83;106029;1254;63722;-86
2023/06/18 02:33:51;;;;;;;11.90;10.60;;;;;;;16.05;100.00;100273.27;106093;1254;71395;-86
2023/06/18 02:36:18;;;;;;;13.60;10.10;;;;;;;16.06;100.00;100277.06;106024;1256;60716;-85
2023/06/18 02:38:44;;;;;;;11.20;10.10;;;;;;;16.07;100.00;100278.49;106065;1251;60469;-84
2023/06/18 02:41:11;;;;;;;11.50;10.00;;;;;;;16.08;100.00;100281.42;106039;1251;74342;-87
2023/06/18 02:43:39;;;;;;;12.80;10.80;;;;;;;16.10;100.00;100280.38;106144;1254;63120;-84
2023/06/18 02:46:06;;;;;;;13.90;10.30;;;;;;;16.12;100.00;100281.77;106052;1263;72630;-86
2023/06/18 02:48:32;;;;;;;12.30;11.10;;;;;;;16.13;100.00;100284.46;106146;1254;60747;-85
2023/06/18 02:50:59;;;;;;;13.30;11.00;;;;;;;16.16;100.00;100281.42;106126;1256;60536;-85
2023/06/18 02:53:26;;;;;;;12.20;10.50;;;;;;;16.19;100.00;100281.17;106228;1254;73869;-83
2023/06/18 02:55:53;;;;;;;14.80;10.80;;;;;;;16.21;100.00;100278.54;106192;1254;63769;-83
2023/06/18 02:58:27;;;;;;;11.90;10.70;;;;;;;16.22;100.00;100276.48;106273;1253;71358;-83
2023/06/18 03:01:02;;;;;;;12.30;11.20;;;;;;;16.25;100.00;100275.14;106282;1263;60987;-84
2023/06/18 03:03:35;;;;;;;13.30;11.00;;;;;;;16.30;100.00;100274.39;107708;1251;60373;-83
2023/06/18 03:06:02;;;;;;;19.30;11.00;;;;;;;16.33;100.00;100270.69;109186;1251;72645;-82
2023/06/18 03:08:29;;;;;;;14.00;10.60;;;;;;;16.39;100.00;100275.46;107533;1251;62655;-84
2023/06/18 03:10:56;;;;;;;13.70;10.30;;;;;;;16.44;100.00;100276.80;107864;1251;71172;-84
2023/06/18 03:13:22;;;;;;;14.70;10.70;;;;;;;16.50;100.00;100276.11;106985;1251;60764;-83
2023/06/18 03:15:53;;;;;;;16.20;10.20;;;;;;;16.54;100.00;100274.77;106944;1251;60814;-84
2023/06/18 03:18:23;;;;;;;10.50;9.40;;;;;;;16.61;100.00;100278.98;106389;1257;73935;-84
2023/06/18 03:20:50;;;;;;;11.40;10.20;;;;;;;16.67;100.00;100279.32;106231;1257;63618;-84
2023/06/18 03:23:18;;;;;;;13.20;10.50;;;;;;;16.74;100.00;100280.79;106288;1251;72683;-85
2023/06/18 03:25:47;;;;;;;13.80;9.80;;;;;;;16.81;100.00;100277.55;106272;1253;61822;-85
2023/06/18 03:28:18;;;;;;;12.80;10.60;;;;;;;16.88;100.00;100277.99;106255;1254;60341;-84
2023/06/18 03:30:45;;;;;;;12.60;9.90;;;;;;;16.94;100.00;100283.36;105982;1256;72565;-83
2023/06/18 03:33:12;;;;;;;12.80;10.80;;;;;;;17.01;100.00;100283.46;106217;1254;62449;-87
2023/06/18 03:35:40;;;;;;;20.10;11.80;;;;;;;17.08;100.00;100288.63;106062;1254;71833;-88
2023/06/18 03:38:07;;;;;;;14.00;11.20;;;;;;;17.15;100.00;100287.26;106180;1251;61395;-83
2023/06/18 03:40:34;;;;;;;16.70;11.90;;;;;;;17.23;100.00;100289.36;106060;1251;60816;-83
2023/06/18 03:43:01;;;;;;;13.30;11.20;;;;;;;17.31;100.00;100293.26;106256;1253;72941;-84
2023/06/18 03:45:31;;;;;;;13.50;10.40;;;;;;;17.38;100.00;100290.41;106124;1254;63740;-85
2023/06/18 03:47:59;;;;;;;17.00;9.80;;;;;;;17.47;100.00;100295.83;105985;1251;72741;-84
2023/06/18 03:50:28;;;;;;;11.30;10.00;;;;;;;17.55;100.00;100298.19;105977;1255;61946;-84
2023/06/18 03:52:55;;;;;;;14.60;10.10;;;;;;;17.63;100.00;100297.27;106307;1257;60480;-84
2023/06/18 03:55:22;;;;;;;11.40;9.10;;;;;;;17.71;100.00;100298.30;106127;1251;72436;-84
2023/06/18 03:57:49;;;;;;;12.80;8.90;;;;;;;17.79;100.00;100298.75;106159;1251;63921;-84
2023/06/18 04:00:16;;;;;;;11.60;10.20;;;;;;;17.88;100.00;100301.11;106310;1255;73022;-84
2023/06/18 04:02:44;;;;;;;12.10;8.60;;;;;;;17.97;100.00;100301.34;106552;1251;61830;-86
2023/06/18 04:05:14;;;;;;;14.80;8.90;;;;;;;18.08;100.00;100301.36;106151;1257;60490;-85
2023/06/18 04:07:41;;;;;;;12.00;9.70;;;;;;;18.17;100.00;100302.39;105983;1251;73769;-83
2023/06/18 04:10:09;;;;;;;12.40;9.40;;;;;;;18.28;100.00;100305.58;106101;1251;63848;-87
2023/06/18 04:12:36;;;;;;;11.40;8.80;;;;;;;18.42;100.00;100306.51;106061;1258;72707;-84
2023/06/18 04:15:03;;;;;;;11.30;8.00;;;;;;;18.63;100.00;100308.51;106151;1263;62005;-84
2023/06/18 04:17:38;;;;;;;8.10;7.30;;;;;;;18.96;100.00;100307.91;106075;1250;60462;-84
2023/06/18 04:20:06;;;;;;;9.00;8.10;;;;;;;19.45;100.00;100314.52;106027;1254;73797;-88
2023/06/18 04:22:33;;;;;;;8.60;7.60;;;;;;;20.02;100.00;100311.48;106119;1255;63834;-87
2023/06/18 04:25:00;;;;;;;10.30;7.90;;;;;;;20.64;100.00;100310.17;105983;1253;72769;-86
2023/06/18 04:27:28;;;;;;;11.60;8.30;;;;;;;21.28;100.00;100317.16;105980;1251;62016;-88
2023/06/18 04:29:56;;;;;;;9.00;6.90;;;;;;;21.90;100.00;100317.95;106271;1254;60419;-86
2023/06/18 04:32:24;;;;;;;7.30;6.20;;;;;;;22.48;100.00;100319.90;107522;1251;73912;-83
2023/06/18 04:34:52;;;;;;;13.00;6.90;;;;;;;23.01;100.00;100316.63;107046;1253;62441;-85
2023/06/18 04:37:19;;;;;;;7.00;6.30;;;;;;;23.50;100.00;100321.36;106468;1257;72663;-87
2023/06/18 04:39:46;;;;;;;9.90;6.90;;;;;;;23.98;100.00;100323.08;105985;1253;60543;-84
2023/06/18 04:42:13;;;;;;;7.20;6.30;;;;;;;24.39;98.04;100315.58;106031;1251;60369;-86
2023/06/18 04:44:43;;;;;;;7.80;6.40;;;;;;;24.79;95.09;100315.32;106109;1254;73856;-87
2023/06/18 04:47:11;;;;;;;7.30;6.00;;;;;;;25.14;92.29;100318.35;106411;1249;62734;-85
2023/06/18 04:49:38;;;;;;;10.70;5.80;;;;;;;25.49;87.74;100316.46;106657;1249;72597;-86
2023/06/18 04:52:07;;;;;;;7.40;6.60;;;;;;;25.79;82.12;100317.75;106216;1257;60501;-88
2023/06/18 04:54:35;;;;;;;10.40;6.60;;;;;;;26.11;77.45;100323.86;106325;1251;60606;-84
2023/06/18 04:57:03;;;;;;;7.10;6.40;;;;;;;26.46;73.74;100317.39;106157;1252;73857;-86
2023/06/18 04:59:31;;;;;;;8.10;6.70;;;;;;;26.80;71.08;100313.41;106181;1257;63970;-85
2023/06/18 05:01:59;;;;;;;7.20;6.50;;;;;;;27.13;68.01;100310.09;105948;1257;72549;-88
2023/06/18 05:04:26;;;;;;;7.80;6.20;;;;;;;27.38;65.60;100313.36;106037;1251;60572;-86
2023/06/18 05:06:54;;;;;;;13.10;6.70;;;;;;;27.68;62.93;100318.55;106194;1254;60424;-87
2023/06/18 05:09:22;;;;;;;7.80;6.40;;;;;;;28.04;60.06;100326.79;106230;1250;73665;-86
2023/06/18 05:11:49;;;;;;;7.80;6.50;;;;;;;28.37;57.98;100322.67;106194;1251;62389;-86
2023/06/18 05:14:17;;;;;;;8.90;6.20;;;;;;;28.70;55.54;100318.34;107431;1251;71810;-86
2023/06/18 05:16:47;;;;;;;7.10;6.10;;;;;;;29.01;52.94;100325.66;108390;1251;60447;-85
2023/06/18 05:19:19;;;;;;;6.80;6.30;;;;;;;29.27;50.90;100326.66;108541;1251;59459;-86
2023/06/18 05:21:47;;;;;;;7.60;5.90;;;;;;;29.56;49.70;100330.52;108342;1251;71943;-86
2023/06/18 05:24:18;;;;;;;8.30;5.80;;;;;;;29.84;47.74;100331.33;107461;1251;64402;-85
2023/06/18 05:26:45;;;;;;;9.80;6.10;;;;;;;30.06;48.41;100332.01;106034;1266;72609;-87
2023/06/18 05:29:18;;;;;;;10.80;6.30;;;;;;;30.17;46.91;100332.15;106958;1251;60514;-85
2023/06/18 05:31:49;;;;;;;112.40;103.40;;;;;;;30.27;46.88;100330.49;106268;1254;62474;-86
2023/06/18 05:34:22;;;;;;;9.80;8.40;;;;;;;30.43;45.77;100334.07;105821;1251;72466;-85
2023/06/18 05:36:49;;;;;;;6.40;5.70;;;;;;;30.60;46.72;100336.28;106053;1255;62472;-88
2023/06/18 05:39:16;;;;;;;6.60;5.60;;;;;;;30.76;44.74;100337.23;106094;1251;72796;-86
2023/06/18 05:41:53;;;;;;;6.00;5.50;;;;;;;30.93;43.11;100333.09;107121;1251;60522;-87
2023/06/18 05:44:20;;;;;;;5.50;5.00;;;;;;;31.01;42.31;100334.89;106129;1251;60521;-84
2023/06/18 05:46:47;;;;;;;5.40;4.90;;;;;;;31.08;41.92;100336.63;106267;1251;72995;-85
2023/06/18 05:49:15;;;;;;;6.10;5.50;;;;;;;31.21;41.87;100340.04;106149;1251;62590;-85
2023/06/18 05:51:45;;;;;;;15.60;14.30;;;;;;;31.31;40.39;100337.61;106120;1253;71848;-86
2023/06/18 05:54:11;;;;;;;15.60;7.40;;;;;;;31.38;40.15;100340.48;105946;1257;60533;-86
2023/06/18 05:56:39;;;;;;;8.10;6.30;;;;;;;31.47;39.92;100343.59;106785;1251;60369;-88
2023/06/18 05:59:07;;;;;;;9.50;6.20;;;;;;;31.64;39.66;100344.60;106099;1251;73820;-87
2023/06/18 06:01:37;;;;;;;6.40;5.70;;;;;;;31.74;38.98;100342.48;108852;1251;63881;-84
2023/06/18 06:04:04;;;;;;;6.30;5.70;;;;;;;31.94;38.14;100342.52;109472;1251;71783;-84
2023/06/18 06:06:31;;;;;;;6.50;4.60;;;;;;;32.21;38.53;100342.36;107640;1257;60552;-86
2023/06/18 06:08:58;;;;;;;11.10;5.60;;;;;;;32.37;38.04;100345.38;107529;1251;60540;-85
2023/06/18 06:11:25;;;;;;;23.20;21.00;;;;;;;32.52;37.38;100349.58;106186;1251;74278;-87
2023/06/18 06:13:52;;;;;;;8.70;6.30;;;;;;;32.58;36.92;100351.60;106154;1251;64187;-85
2023/06/18 06:16:20;;;;;;;7.40;5.70;;;;;;;32.58;36.99;100350.03;106192;1251;72586;-86
2023/06/18 06:18:46;;;;;;;7.80;5.70;;;;;;;32.62;36.99;100351.77;105977;1251;60516;-89
2023/06/18 06:21:14;;;;;;;10.50;5.60;;;;;;;32.71;37.51;100355.40;105979;1257;60421;-89
2023/06/18 06:23:41;;;;;;;6.60;5.90;;;;;;;32.81;37.10;100352.10;105835;1251;73041;-88
2023/06/18 06:26:08;;;;;;;7.20;6.30;;;;;;;32.99;37.00;100352.02;106079;1251;62686;-90
2023/06/18 06:28:38;;;;;;;6.80;6.10;;;;;;;33.16;36.81;100350.23;106180;1251;71414;-86
2023/06/18 06:31:06;;;;;;;7.60;6.90;;;;;;;33.28;36.03;100353.46;106001;1251;60538;-90
2023/06/18 06:33:33;;;;;;;6.50;5.80;;;;;;;33.40;36.13;100352.98;106138;1251;61069;-89
2023/06/18 06:36:00;;;;;;;7.20;6.20;;;;;;;33.53;34.99;100356.38;106156;1254;74499;-86
2023/06/18 06:38:27;;;;;;;8.80;6.60;;;;;;;33.62;35.02;100354.46;106151;1254;63553;-86
2023/06/18 06:40:54;;;;;;;8.90;6.10;;;;;;;33.72;36.30;100355.85;106151;1258;72306;-87
2023/06/18 06:43:24;;;;;;;6.10;5.60;;;;;;;33.88;35.82;100353.06;106043;1250;60714;-85
2023/06/18 06:46:10;;;;;;;6.60;6.00;;;;;;;34.11;35.29;100355.86;106053;1251;60767;-88
2023/06/18 06:48:53;;;;;;;7.00;5.80;;;;;;;34.31;33.80;100354.77;106176;1251;73740;-87
2023/06/18 06:51:38;;;;;;;6.60;5.80;;;;;;;34.61;33.22;100353.93;106178;1254;63945;-89
2023/06/18 06:54:11;;;;;;;7.90;6.70;;;;;;;34.88;32.48;100353.95;106194;1254;73126;-85
2023/06/18 06:56:38;;;;;;;7.50;6.00;;;;;;;35.10;31.67;100356.17;106491;1256;60619;-87
2023/06/18 06:59:08;;;;;;;7.40;5.40;;;;;;;35.30;31.53;100353.27;105994;1254;60448;-84
2023/06/18 07:01:36;;;;;;;6.50;5.90;;;;;;;35.51;31.32;100355.96;106097;1253;71910;-89
2023/06/18 07:04:03;;;;;;;6.10;5.50;;;;;;;35.71;31.65;100353.80;105989;1256;64104;-87
2023/06/18 07:06:31;;;;;;;5.50;5.00;;;;;;;35.86;30.92;100352.55;105999;1251;71725;-85
2023/06/18 07:08:59;;;;;;;6.10;5.40;;;;;;;35.98;30.72;100348.00;106080;1256;60520;-86
2023/06/18 07:11:27;;;;;;;7.60;6.00;;;;;;;36.17;31.21;100349.61;106034;1255;60510;-87
2023/06/18 07:13:54;;;;;;;6.90;6.10;;;;;;;36.42;29.90;100353.39;106086;1251;73899;-87
2023/06/18 07:16:21;;;;;;;7.10;5.50;;;;;;;36.58;29.36;100355.05;106088;1256;60514;-86
2023/06/18 07:18:48;;;;;;;16.30;14.80;;;;;;;36.60;28.96;100353.64;105983;1251;72647;-91
2023/06/18 07:21:16;;;;;;;6.30;5.20;;;;;;;36.63;28.85;100355.56;106035;1253;60502;-88
2023/06/18 07:23:43;;;;;;;11.70;6.10;;;;;;;36.80;28.47;100354.25;106182;1250;60347;-85
2023/06/18 07:26:10;;;;;;;6.10;5.50;;;;;;;36.99;27.74;100353.05;106948;1250;65296;-87
2023/06/18 07:28:37;;;;;;;7.30;6.20;;;;;;;37.13;27.08;100351.80;106923;1250;60476;-86
2023/06/18 07:31:05;;;;;;;6.60;5.90;;;;;;;37.26;27.00;100351.29;107768;1253;62819;-85
2023/06/18 07:33:33;;;;;;;6.00;5.40;;;;;;;37.43;26.44;100354.10;108759;1250;59099;-81
2023/06/18 07:36:03;;;;;;;5.60;5.20;;;;;;;37.60;25.95;100354.29;108567;1251;59307;-84
2023/06/18 07:38:30;;;;;;;6.20;4.70;;;;;;;37.70;25.96;100355.73;107221;1249;65305;-84
2023/06/18 07:40:57;;;;;;;5.70;5.20;;;;;;;37.78;25.53;100357.63;106708;1253;60517;-86
2023/06/18 07:43:24;;;;;;;9.30;5.30;;;;;;;37.88;25.47;100361.14;106317;1254;62579;-86
2023/06/18 07:45:51;;;;;;;6.80;4.80;;;;;;;37.98;24.84;100359.00;106265;1251;60458;-86
2023/06/18 07:48:18;;;;;;;9.70;5.30;;;;;;;38.09;24.32;100364.33;106270;1251;60432;-85
2023/06/18 07:50:45;;;;;;;7.40;5.50;;;;;;;38.11;24.26;100362.63;106250;1253;64925;-89
2023/06/18 07:53:12;;;;;;;5.80;5.40;;;;;;;37.98;23.58;100359.89;106918;1249;60446;-86
2023/06/18 07:55:39;;;;;;;12.10;5.10;;;;;;;37.86;23.58;100359.73;107593;1250;63413;-89
2023/06/18 07:58:06;;;;;;;10.60;5.20;;;;;;;37.79;23.63;100357.73;106528;1251;60480;-85
2023/06/18 08:00:32;;;;;;;5.40;4.50;;;;;;;37.76;24.06;100354.23;106475;1251;60421;-86
2023/06/18 08:02:59;;;;;;;6.00;5.50;;;;;;;37.84;24.16;100356.28;106344;1251;63807;-88
2023/06/18 08:05:29;;;;;;;11.00;5.50;;;;;;;37.92;23.29;100352.57;106293;1254;60453;-88
2023/06/18 08:07:56;;;;;;;5.70;5.20;;;;;;;37.95;23.18;100349.92;106366;1251;62447;-85
2023/06/18 08:10:23;;;;;;;10.10;5.10;;;;;;;37.95;22.99;100350.79;107001;1251;60341;-83
2023/06/18 08:12:50;;;;;;;11.70;5.40;;;;;;;38.02;22.71;100350.79;106717;1250;60543;-85
2023/06/18 08:15:17;;;;;;;7.10;5.40;;;;;;;38.10;22.84;100347.96;106303;1251;65308;-86
2023/06/18 08:17:44;;;;;;;7.30;6.50;;;;;;;38.14;22.97;100350.45;106157;1254;60322;-89
2023/06/18 08:20:11;;;;;;;7.30;5.70;;;;;;;38.11;22.78;100351.89;106027;1254;62799;-87
2023/06/18 08:22:39;;;;;;;13.60;6.40;;;;;;;38.15;22.48;100357.69;106147;1254;60959;-87
2023/06/18 08:25:06;;;;;;;5.90;4.80;;;;;;;38.17;22.40;100357.77;105929;1255;60513;-90
2023/06/18 08:27:34;;;;;;;7.10;5.00;;;;;;;38.17;22.29;100356.95;106094;1253;65273;-89
2023/06/18 08:30:06;;;;;;;7.30;6.00;;;;;;;38.19;22.42;100355.80;105911;1255;60384;-88
2023/06/18 08:32:34;;;;;;;8.90;5.70;;;;;;;38.20;22.35;100356.66;106130;1253;72547;-88
2023/06/18 08:35:01;;;;;;;6.90;5.10;;;;;;;38.22;22.01;100358.46;106062;1251;60542;-85
2023/06/18 08:41:02;;;;;;;6.70;5.00;;;;;;;38.38;22.20;100357.98;102515;1295;607669;-86
2023/06/18 08:43:37;;;;;;;13.90;5.60;;;;;;;38.45;22.55;100356.63;105076;1273;59434;-85
2023/06/18 08:46:14;;;;;;;6.30;5.70;;;;;;;38.53;22.11;100356.65;105010;1270;59431;-86
2023/06/18 08:49:09;;;;;;;8.90;5.30;;;;;;;38.44;21.93;100352.08;105524;1255;63602;-86
2023/06/18 08:51:38;;;;;;;8.00;5.50;;;;;;;38.29;22.08;100349.38;105786;1257;59338;-86
2023/06/18 08:54:08;;;;;;;6.20;5.60;;;;;;;38.27;22.41;100350.23;105373;1254;619458;-87
2023/06/18 08:56:39;;;;;;;7.90;5.30;;;;;;;38.25;22.00;100348.75;107633;1252;58844;-85
2023/06/18 08:59:06;;;;;;;6.50;4.50;;;;;;;38.20;21.70;100350.31;107405;1255;59417;-87
2023/06/18 09:01:32;;;;;;;8.40;5.70;;;;;;;38.20;21.62;100349.17;107687;1253;62339;-83
2023/06/18 09:04:00;;;;;;;6.00;5.10;;;;;;;38.18;21.73;100348.41;107623;1257;59134;-85
2023/06/18 09:06:29;;;;;;;11.30;5.00;;;;;;;38.17;21.54;100352.63;106167;1253;64037;-88
2023/06/18 09:09:00;;;;;;;6.20;5.20;;;;;;;38.19;22.37;100349.49;106315;1257;59694;-85
2023/06/18 09:11:27;;;;;;;7.00;5.10;;;;;;;38.26;22.75;100349.39;107027;1252;59648;-84
2023/06/18 09:13:59;;;;;;;5.60;4.80;;;;;;;38.33;22.13;100351.10;106276;1253;64509;-84
2023/06/18 09:16:27;;;;;;;5.00;4.60;;;;;;;38.34;21.96;100353.13;106070;1255;59564;-86
2023/06/18 09:18:54;;;;;;;5.90;5.40;;;;;;;38.39;22.53;100345.59;105945;1255;63956;-88
2023/06/18 09:21:38;;;;;;;5.90;5.30;;;;;;;38.43;22.21;100349.88;105923;1257;59788;-85
2023/06/18 09:24:06;;;;;;;7.70;5.40;;;;;;;38.42;21.56;100350.78;105996;1254;59641;-87
2023/06/18 09:26:34;;;;;;;7.10;5.00;;;;;;;38.41;21.07;100353.96;106284;1252;64258;-85
2023/06/18 09:29:06;;;;;;;5.40;5.00;;;;;;;38.34;20.69;100350.12;105872;1259;60095;-85
2023/06/18 09:31:35;;;;;;;8.20;5.10;;;;;;;38.25;21.23;100342.83;105984;1256;64042;-88
2023/06/18 09:34:17;;;;;;;7.20;5.10;;;;;;;38.27;21.33;100343.81;106025;1251;59645;-87
2023/06/18 09:36:46;;;;;;;8.00;5.30;;;;;;;38.29;20.99;100345.94;106057;1256;59715;-86
2023/06/18 09:39:24;;;;;;;5.30;4.80;;;;;;;38.30;21.30;100342.74;105915;1255;63122;-85
2023/06/18 09:41:52;;;;;;;7.60;5.10;;;;;;;38.33;21.54;100346.29;105948;1251;59779;-85
2023/06/18 09:44:20;;;;;;;5.50;5.10;;;;;;;38.34;20.88;100350.98;105989;1251;63736;-87
2023/06/18 09:46:48;;;;;;;7.40;5.10;;;;;;;38.26;20.52;100346.17;106015;1255;59754;-86
2023/06/18 09:49:16;;;;;;;5.20;4.60;;;;;;;38.13;20.97;100343.40;105907;1251;60002;-87
2023/06/18 09:51:44;;;;;;;8.40;4.60;;;;;;;38.12;21.53;100342.20;106049;1256;63250;-88
2023/06/18 09:54:14;;;;;;;5.80;4.90;;;;;;;38.21;21.46;100348.66;105869;1251;59776;-89
2023/06/18 09:56:57;;;;;;;5.90;5.40;;;;;;;38.31;21.85;100344.66;105623;1253;62553;-84
2023/06/18 09:59:25;;;;;;;5.50;5.00;;;;;;;38.43;21.62;100353.51;105887;1255;59731;-85
2023/06/18 10:01:54;;;;;;;10.10;5.20;;;;;;;38.40;20.59;100354.30;106349;1251;59508;-86
2023/06/18 10:04:25;;;;;;;6.80;4.60;;;;;;;38.26;20.79;100352.80;106155;1251;63220;-87
2023/06/18 10:07:05;;;;;;;6.30;5.10;;;;;;;38.29;21.57;100350.92;106051;1256;59580;-87
2023/06/18 10:09:36;;;;;;;9.60;4.60;;;;;;;38.44;21.99;100346.77;105907;1251;66416;-88
2023/06/18 10:12:04;;;;;;;4.60;4.30;;;;;;;38.53;21.73;100344.04;106062;1251;59686;-87
2023/06/18 10:14:32;;;;;;;7.10;5.00;;;;;;;38.56;21.42;100345.49;106000;1253;59731;-88
2023/06/18 10:17:15;;;;;;;4.80;4.40;;;;;;;38.60;21.03;100344.86;106088;1251;64343;-87
2023/06/18 10:20:01;;;;;;;;;;;;;;;38.61;20.52;100343.05;105883;1256;59724;-86
2023/06/18 10:22:29;;;;;;;6.30;5.70;;;;;;;38.52;20.92;100344.70;105918;1256;63939;-86
2023/06/18 10:25:02;;;;;;;16.60;5.20;;;;;;;38.40;20.08;100341.54;106025;1255;59781;-84
2023/06/18 10:27:29;;;;;;;7.80;4.80;;;;;;;38.15;19.80;100344.15;105865;1251;60908;-87
2023/06/18 10:29:59;;;;;;;7.10;5.40;;;;;;;37.90;20.93;100341.36;105874;1252;64505;-85
2023/06/18 10:32:27;;;;;;;8.10;5.80;;;;;;;37.80;21.00;100341.63;105858;1251;59612;-88
2023/06/18 10:34:56;;;;;;;5.40;5.00;;;;;;;37.73;20.88;100334.43;105894;1256;63864;-86
2023/06/18 10:37:25;;;;;;;5.20;4.60;;;;;;;37.68;21.01;100337.23;105830;1252;59812;-88
2023/06/18 10:39:58;;;;;;;6.00;5.50;;;;;;;37.69;21.24;100335.48;105896;1253;59805;-87
2023/06/18 10:42:25;;;;;;;6.00;5.50;;;;;;;37.74;21.49;100335.14;106068;1255;73012;-87
2023/06/18 10:44:54;;;;;;;5.90;5.30;;;;;;;37.80;21.83;100338.14;105898;1251;59750;-85
2023/06/18 10:47:22;;;;;;;9.10;5.20;;;;;;;37.87;21.32;100344.05;105903;1253;63478;-86
2023/06/18 10:50:02;;;;;;;6.60;5.30;;;;;;;37.93;21.22;100340.08;106100;1256;59728;-87
2023/06/18 10:52:31;;;;;;;8.70;5.60;;;;;;;37.93;20.97;100336.73;106294;1251;59663;-86
2023/06/18 10:55:21;;;;;;;5.70;4.90;;;;;;;37.92;20.99;100338.17;105980;1255;63154;-87
2023/06/18 10:57:50;;;;;;;6.00;5.40;;;;;;;37.93;21.43;100336.69;105830;1255;59507;-87
2023/06/18 11:00:18;;;;;;;5.80;5.20;;;;;;;37.92;21.76;100335.87;105996;1255;63697;-85
2023/06/18 11:02:46;;;;;;;5.50;4.80;;;;;;;37.75;22.15;100339.56;105944;1256;59704;-86
2023/06/18 11:05:16;;;;;;;6.50;5.90;;;;;;;37.63;22.04;100339.83;105954;1251;59715;-86
2023/06/18 11:07:43;;;;;;;8.40;6.10;;;;;;;37.54;22.42;100339.62;106079;1251;63139;-87
2023/06/18 11:10:10;;;;;;;5.90;4.90;;;;;;;37.51;21.86;100341.65;105894;1251;59634;-89
2023/06/18 11:12:39;;;;;;;10.20;5.00;;;;;;;37.47;22.31;100332.52;107141;1252;64103;-87
2023/06/18 11:15:17;;;;;;;7.20;5.10;;;;;;;37.48;22.13;100341.34;106817;1251;59778;-90
2023/06/18 11:17:55;;;;;;;5.90;5.10;;;;;;;37.44;21.18;100339.10;106141;1253;59602;-86
2023/06/18 11:20:23;;;;;;;5.80;5.20;;;;;;;37.26;21.41;100343.73;106324;1251;63231;-85
2023/06/18 11:22:56;;;;;;;10.40;9.30;;;;;;;37.11;22.07;100344.05;106240;1256;59680;-87